San Francisco, California
Traffic Map
Current Weather Conditions
San Francisco, California
Overcast
Overcast
55°
Feels Like: 55°
Wind Chill: 55° Ceiling: 1500
Heat Index: 55° Visibility: 10mi
Dew Point: 48° Wind: 17mph
Humidity: 77% Direction: 250° (WSW)
Pressure: 30.07in Gusts: 22mph
Raw Report DataKSFO 240456Z 25015G19KT 10SM SCT011 BKN015 OVC018 13/09 A3007 RMK AO2 SLP182 T01280089
Traffic Incident Summary
Active as of:
Severity:
Category:
InformationThere was an issue retrieving the traffic information for this location. Please try a different location or try again shortly.
Advertisements
Track Severe Weather on mobile